createdAt,value
2018-06-11T00:02:17.975Z,10.17
2018-06-11T00:04:46.372Z,10.20
2018-06-11T00:07:14.963Z,9.47
2018-06-11T00:09:43.333Z,9.57
2018-06-11T00:12:11.842Z,10.67
2018-06-11T00:14:40.347Z,9.70
2018-06-11T00:17:08.832Z,9.70
2018-06-11T00:19:37.225Z,9.80
2018-06-11T00:22:06.209Z,10.00
2018-06-11T00:24:34.630Z,9.30
2018-06-11T00:27:03.044Z,10.20
2018-06-11T00:29:31.478Z,10.00
2018-06-11T00:31:59.875Z,10.40
2018-06-11T00:34:28.308Z,10.00
2018-06-11T00:36:56.904Z,10.07
2018-06-11T00:39:25.312Z,9.93
2018-06-11T00:41:53.727Z,10.17
2018-06-11T00:44:22.164Z,10.40
2018-06-11T00:46:50.560Z,9.73
2018-06-11T00:49:18.899Z,10.40
2018-06-11T00:51:47.487Z,10.57
2018-06-11T00:54:15.884Z,9.93
2018-06-11T00:56:44.243Z,10.70
2018-06-11T00:59:12.664Z,10.87
2018-06-11T01:01:41.100Z,10.30
2018-06-11T01:04:09.498Z,10.43
2018-06-11T01:06:37.871Z,10.47
2018-06-11T01:09:07.269Z,10.50
2018-06-11T01:11:35.824Z,10.17
2018-06-11T01:14:04.226Z,10.37
2018-06-11T01:16:32.596Z,11.07
2018-06-11T01:19:00.938Z,10.50
2018-06-11T01:21:29.379Z,10.53
2018-06-11T01:23:57.826Z,11.37
2018-06-11T01:26:26.178Z,10.40
2018-06-11T01:28:54.782Z,10.93
2018-06-11T01:31:23.234Z,10.63
2018-06-11T01:33:52.516Z,10.43
2018-06-11T01:36:20.984Z,10.40
2018-06-11T01:38:49.543Z,11.17
2018-06-11T01:41:17.907Z,11.30
2018-06-11T01:43:46.310Z,11.37
2018-06-11T01:46:14.749Z,10.87
2018-06-11T01:48:43.169Z,11.07
2018-06-11T01:51:11.763Z,11.80
2018-06-11T01:53:40.306Z,11.90
2018-06-11T01:56:08.790Z,11.80
2018-06-11T01:58:37.294Z,11.83
2018-06-11T02:01:05.809Z,12.10
2018-06-11T02:03:34.268Z,11.40
2018-06-11T02:06:02.703Z,12.30
2018-06-11T02:08:31.180Z,12.30
2018-06-11T02:10:59.622Z,11.70
2018-06-11T02:13:28.112Z,11.17
2018-06-11T02:15:56.595Z,11.10
2018-06-11T02:18:25.041Z,12.17
2018-06-11T02:20:53.578Z,11.27
2018-06-11T02:23:21.955Z,11.40
2018-06-11T02:25:50.473Z,11.40
2018-06-11T02:28:18.896Z,11.20
2018-06-11T02:30:47.294Z,11.77
2018-06-11T02:33:15.693Z,11.97
2018-06-11T02:35:44.133Z,11.33
2018-06-11T02:38:12.577Z,10.30
2018-06-11T02:40:40.995Z,11.80
2018-06-11T02:43:09.443Z,11.40
2018-06-11T02:45:37.901Z,10.90
2018-06-11T02:48:06.265Z,11.17
2018-06-11T02:50:34.634Z,11.37
2018-06-11T02:53:03.102Z,12.40
2018-06-11T02:55:31.518Z,12.73
2018-06-11T02:58:00.000Z,11.43
2018-06-11T03:00:28.477Z,10.80
2018-06-11T03:02:56.845Z,11.33
2018-06-11T03:05:25.401Z,11.27
2018-06-11T03:07:53.729Z,10.87
2018-06-11T03:10:22.206Z,10.47
2018-06-11T03:12:50.710Z,10.63
2018-06-11T03:15:19.167Z,11.20
2018-06-11T03:17:47.510Z,11.80
2018-06-11T03:20:15.985Z,10.30
2018-06-11T03:22:44.465Z,11.83
2018-06-11T03:25:12.927Z,11.70
2018-06-11T03:27:41.387Z,10.87
2018-06-11T03:30:09.783Z,11.23
2018-06-11T03:32:38.238Z,11.70
2018-06-11T03:35:06.627Z,11.07
2018-06-11T03:37:34.995Z,12.00
2018-06-11T03:40:03.525Z,10.73
2018-06-11T03:42:31.954Z,11.10
2018-06-11T03:45:00.501Z,12.17
2018-06-11T03:47:28.833Z,12.17
2018-06-11T03:49:57.361Z,11.10
2018-06-11T03:52:25.671Z,11.93
2018-06-11T03:54:54.103Z,11.43
2018-06-11T03:57:29.050Z,11.80
2018-06-11T03:59:57.545Z,12.00
2018-06-11T04:02:26.012Z,11.00
2018-06-11T04:04:54.465Z,11.10
2018-06-11T04:07:22.885Z,11.00
2018-06-11T04:09:51.469Z,10.83
2018-06-11T04:12:19.897Z,11.03
2018-06-11T04:14:48.343Z,11.20
2018-06-11T04:17:16.741Z,12.00
2018-06-11T04:19:45.152Z,11.40
2018-06-11T04:22:13.620Z,11.03
2018-06-11T04:24:42.003Z,10.60
2018-06-11T04:27:10.376Z,11.23
2018-06-11T04:29:38.892Z,10.43
2018-06-11T04:32:07.238Z,10.33
2018-06-11T04:34:35.703Z,10.43
2018-06-11T04:37:04.133Z,10.20
2018-06-11T04:39:32.449Z,11.53
2018-06-11T04:42:01.082Z,10.07
2018-06-11T04:44:29.590Z,10.60
2018-06-11T04:46:58.071Z,10.40
2018-06-11T04:49:26.454Z,10.30
2018-06-11T04:51:54.912Z,10.73
2018-06-11T04:54:23.401Z,10.60
2018-06-11T04:56:51.845Z,10.10
2018-06-11T04:59:20.260Z,11.17
2018-06-11T05:01:48.682Z,9.53
2018-06-11T05:04:17.243Z,9.90
2018-06-11T05:06:45.670Z,9.43
2018-06-11T05:09:14.089Z,10.63
2018-06-11T05:11:42.468Z,10.20
2018-06-11T05:14:11.021Z,8.87
2018-06-11T05:16:39.464Z,8.73
2018-06-11T05:19:07.843Z,10.20
2018-06-11T05:21:36.174Z,10.10
2018-06-11T05:24:04.579Z,10.30
2018-06-11T05:26:33.026Z,10.47
2018-06-11T05:29:01.346Z,9.00
2018-06-11T05:31:29.888Z,11.00
2018-06-11T05:33:58.312Z,10.67
2018-06-11T05:36:26.776Z,10.90
2018-06-11T05:38:54.911Z,10.07
2018-06-11T05:41:23.375Z,9.87
2018-06-11T05:43:51.905Z,10.63
2018-06-11T05:46:20.348Z,9.87
2018-06-11T05:48:48.836Z,10.33
2018-06-11T05:51:17.238Z,9.40
2018-06-11T05:53:45.623Z,9.80
2018-06-11T05:56:15.046Z,9.50
2018-06-11T05:58:43.331Z,9.80
2018-06-11T06:01:11.727Z,9.57
2018-06-11T06:03:40.050Z,9.47
2018-06-11T06:06:08.391Z,9.40
2018-06-11T06:08:36.776Z,9.03
2018-06-11T06:11:05.309Z,9.47
2018-06-11T06:13:33.773Z,9.23
2018-06-11T06:16:02.169Z,9.47
2018-06-11T06:18:30.616Z,9.73
2018-06-11T06:20:59.033Z,9.90
2018-06-11T06:23:27.437Z,9.80
2018-06-11T06:25:55.897Z,10.30
2018-06-11T06:28:28.041Z,8.90
2018-06-11T06:30:56.771Z,9.60
2018-06-11T06:33:25.193Z,9.50
2018-06-11T06:35:53.599Z,8.93
2018-06-11T06:38:21.937Z,10.10
2018-06-11T06:40:50.379Z,9.23
2018-06-11T06:43:18.811Z,9.40
2018-06-11T06:45:47.293Z,9.37
2018-06-11T06:48:15.690Z,10.07
2018-06-11T06:50:44.256Z,9.97
2018-06-11T06:53:12.627Z,9.83
2018-06-11T06:55:41.031Z,10.27
2018-06-11T06:58:09.489Z,10.20
2018-06-11T07:00:37.860Z,11.00
2018-06-11T07:03:06.301Z,9.87
2018-06-11T07:05:34.698Z,9.70
2018-06-11T07:08:03.772Z,9.90
2018-06-11T07:10:32.215Z,9.10
2018-06-11T07:13:00.292Z,9.87
2018-06-11T07:15:28.755Z,10.40
2018-06-11T07:17:57.065Z,10.00
2018-06-11T07:20:25.444Z,9.47
2018-06-11T07:22:53.902Z,9.90
2018-06-11T07:25:22.291Z,9.83
2018-06-11T07:27:50.811Z,9.73
2018-06-11T07:30:19.291Z,10.57
2018-06-11T07:32:47.806Z,10.67
2018-06-11T07:35:16.227Z,9.20
2018-06-11T07:37:44.697Z,9.70
2018-06-11T07:40:13.032Z,9.27
2018-06-11T07:42:41.401Z,9.03
2018-06-11T07:45:09.919Z,9.43
2018-06-11T07:47:38.873Z,10.13
2018-06-11T07:50:07.232Z,9.43
2018-06-11T07:52:35.658Z,9.93
2018-06-11T07:55:04.292Z,11.30
2018-06-11T07:57:32.829Z,10.70
2018-06-11T08:00:01.411Z,10.97
2018-06-11T08:02:29.789Z,9.33
2018-06-11T08:04:58.154Z,9.60
2018-06-11T08:07:26.591Z,9.10
2018-06-11T08:09:55.076Z,9.83
2018-06-11T08:12:23.447Z,10.27
2018-06-11T08:14:51.819Z,10.33
2018-06-11T08:17:20.341Z,10.57
2018-06-11T08:19:48.725Z,10.10
2018-06-11T08:22:17.019Z,8.70
2018-06-11T08:24:45.431Z,9.73
2018-06-11T08:27:13.930Z,10.50
2018-06-11T08:29:42.304Z,10.50
2018-06-11T08:32:10.674Z,9.60
2018-06-11T08:34:39.249Z,10.17
2018-06-11T08:37:07.626Z,9.40
2018-06-11T08:39:36.002Z,9.63
2018-06-11T08:42:04.442Z,9.67
2018-06-11T08:44:34.244Z,9.00
2018-06-11T08:47:02.640Z,10.00
2018-06-11T08:49:31.038Z,10.30
2018-06-11T08:52:00.661Z,10.13
2018-06-11T08:54:29.251Z,10.70
2018-06-11T08:56:57.636Z,10.30
2018-06-11T08:59:25.992Z,9.67
2018-06-11T09:01:54.447Z,10.23
2018-06-11T09:04:22.868Z,9.90
2018-06-11T09:06:51.245Z,9.83
2018-06-11T09:09:19.638Z,10.00
2018-06-11T09:11:47.997Z,9.60
2018-06-11T09:14:16.492Z,10.33
2018-06-11T09:16:44.958Z,10.07
2018-06-11T09:19:13.380Z,9.50
2018-06-11T09:21:41.739Z,11.00
2018-06-11T09:24:10.648Z,11.23
2018-06-11T09:26:39.120Z,10.90
2018-06-11T09:29:07.564Z,11.07
2018-06-11T09:31:35.944Z,10.87
2018-06-11T09:34:04.373Z,10.27
2018-06-11T09:36:32.684Z,10.40
2018-06-11T09:39:01.092Z,9.73
2018-06-11T09:41:29.434Z,10.47
2018-06-11T09:43:57.922Z,11.23
2018-06-11T09:46:26.293Z,10.77
2018-06-11T09:48:54.686Z,10.80
2018-06-11T09:51:23.203Z,9.17
2018-06-11T09:53:51.548Z,10.57
2018-06-11T09:56:19.919Z,10.83
2018-06-11T09:58:48.272Z,11.60
2018-06-11T10:01:16.686Z,11.30
2018-06-11T10:03:45.115Z,11.50
2018-06-11T10:06:13.446Z,12.00
2018-06-11T10:08:41.791Z,11.97
2018-06-11T10:11:10.096Z,12.13
2018-06-11T10:13:38.655Z,10.70
2018-06-11T10:16:06.997Z,14.60
2018-06-11T10:18:35.409Z,11.90
2018-06-11T10:21:03.761Z,12.03
2018-06-11T10:23:32.090Z,12.70
2018-06-11T10:26:00.510Z,11.50
2018-06-11T10:28:28.942Z,11.17
2018-06-11T10:30:57.462Z,12.13
2018-06-11T10:33:25.896Z,11.17
2018-06-11T10:35:54.222Z,11.63
2018-06-11T10:38:22.772Z,12.00
2018-06-11T10:40:51.187Z,12.00
2018-06-11T10:43:19.572Z,11.07
2018-06-11T10:45:48.070Z,11.20
2018-06-11T10:48:16.552Z,11.40
2018-06-11T10:50:44.906Z,11.23
2018-06-11T10:53:13.269Z,10.80
2018-06-11T10:55:41.642Z,11.20
2018-06-11T10:58:10.133Z,10.17
2018-06-11T11:00:38.497Z,10.43
2018-06-11T11:03:06.981Z,11.10
2018-06-11T11:05:35.463Z,11.20
2018-06-11T11:08:04.002Z,11.07
2018-06-11T11:10:32.514Z,10.17
2018-06-11T11:13:00.862Z,10.40
2018-06-11T11:15:29.379Z,11.53
2018-06-11T11:17:57.830Z,15.23
2018-06-11T11:20:26.270Z,11.60
2018-06-11T11:22:54.570Z,12.75
2018-06-11T11:25:22.929Z,11.90
2018-06-11T11:27:51.354Z,10.08
2018-06-11T11:30:19.928Z,10.75
2018-06-11T11:32:48.318Z,9.83
2018-06-11T11:35:16.664Z,9.55
2018-06-11T11:37:45.285Z,10.95
2018-06-11T11:40:13.786Z,9.83
2018-06-11T11:42:42.164Z,9.63
2018-06-11T11:45:10.591Z,8.98
2018-06-11T11:47:38.973Z,10.05
2018-06-11T11:50:07.407Z,10.63
2018-06-11T11:52:35.845Z,12.15
2018-06-11T11:55:04.348Z,8.23
2018-06-11T11:57:32.822Z,9.30
2018-06-11T12:00:01.208Z,8.50
2018-06-11T12:02:29.523Z,9.60
2018-06-11T12:04:57.880Z,9.37
2018-06-11T12:07:26.284Z,9.73
2018-06-11T12:09:54.692Z,10.13
2018-06-11T12:12:23.068Z,12.30
2018-06-11T12:14:51.566Z,10.50
2018-06-11T12:17:19.979Z,10.23
2018-06-11T12:19:48.332Z,9.17
2018-06-11T12:22:16.762Z,10.87
2018-06-11T12:24:45.120Z,10.50
2018-06-11T12:27:13.431Z,10.43
2018-06-11T12:29:41.816Z,11.80
2018-06-11T12:32:10.249Z,10.50
2018-06-11T12:34:38.656Z,9.30
2018-06-11T12:37:07.003Z,9.10
2018-06-11T12:39:35.352Z,9.90
2018-06-11T12:42:03.730Z,9.73
2018-06-11T12:44:32.018Z,9.07
2018-06-11T12:47:00.375Z,8.60
2018-06-11T12:49:28.702Z,8.50
2018-06-11T12:51:57.101Z,8.50
2018-06-11T12:54:25.475Z,7.70
2018-06-11T12:56:53.858Z,8.20
2018-06-11T12:59:22.396Z,8.40
2018-06-11T13:01:50.756Z,8.43
2018-06-11T13:04:19.241Z,7.60
2018-06-11T13:06:47.668Z,8.17
2018-06-11T13:09:16.181Z,7.50
2018-06-11T13:11:44.651Z,7.47
2018-06-11T13:14:13.120Z,7.67
2018-06-11T13:16:41.514Z,8.40
2018-06-11T13:19:09.915Z,8.17
2018-06-11T13:21:38.311Z,7.50
2018-06-11T13:24:06.714Z,7.87
2018-06-11T13:26:35.104Z,8.40
2018-06-11T13:29:03.647Z,7.90
2018-06-11T13:31:32.042Z,8.43
2018-06-11T13:34:00.530Z,7.83
2018-06-11T13:36:28.976Z,8.30
2018-06-11T13:38:57.528Z,8.30
2018-06-11T13:41:25.969Z,8.03
2018-06-11T13:43:54.343Z,7.70
2018-06-11T13:46:22.754Z,8.20
2018-06-11T13:48:51.196Z,7.60
2018-06-11T13:51:19.624Z,7.77
2018-06-11T13:53:48.132Z,7.07
2018-06-11T13:56:16.456Z,7.87
2018-06-11T13:58:44.784Z,7.73
2018-06-11T14:01:13.179Z,6.93
2018-06-11T14:03:41.620Z,6.87
2018-06-11T14:06:10.142Z,7.93
2018-06-11T14:08:38.477Z,10.67
2018-06-11T14:11:06.885Z,7.20
2018-06-11T14:13:35.260Z,7.10
2018-06-11T14:16:03.666Z,6.90
2018-06-11T14:18:32.061Z,7.43
2018-06-11T14:21:00.456Z,6.90
2018-06-11T14:23:28.930Z,6.90
2018-06-11T14:25:57.594Z,7.37
2018-06-11T14:28:26.669Z,7.50
2018-06-11T14:30:55.145Z,6.73
2018-06-11T14:33:23.566Z,6.80
2018-06-11T14:35:51.912Z,6.47
2018-06-11T14:38:20.364Z,6.20
2018-06-11T14:40:48.837Z,5.90
2018-06-11T14:43:17.236Z,6.23
2018-06-11T14:45:45.646Z,7.30
2018-06-11T14:48:14.227Z,6.80
2018-06-11T14:50:42.614Z,6.50
2018-06-11T14:53:11.182Z,6.30
2018-06-11T14:55:39.545Z,5.90
2018-06-11T14:58:08.236Z,7.07
2018-06-11T15:00:36.680Z,6.40
2018-06-11T15:03:05.019Z,6.27
2018-06-11T15:05:33.437Z,7.13
2018-06-11T15:08:01.858Z,5.77
2018-06-11T15:10:30.216Z,5.70
2018-06-11T15:12:58.731Z,5.90
2018-06-11T15:15:27.325Z,5.73
2018-06-11T15:17:55.698Z,5.97
2018-06-11T15:20:24.147Z,5.70
2018-06-11T15:22:52.535Z,5.60
2018-06-11T15:25:20.834Z,5.80
2018-06-11T15:27:49.301Z,5.67
2018-06-11T15:30:17.714Z,7.53
2018-06-11T15:32:46.013Z,5.57
2018-06-11T15:35:14.351Z,5.10
2018-06-11T15:37:42.759Z,5.20
2018-06-11T15:40:11.184Z,5.60
2018-06-11T15:42:39.596Z,5.10
2018-06-11T15:45:08.014Z,5.20
2018-06-11T15:47:36.520Z,4.80
2018-06-11T15:50:04.934Z,5.30
2018-06-11T15:52:33.375Z,4.60
2018-06-11T15:55:01.885Z,5.20
2018-06-11T15:57:30.314Z,4.70
2018-06-11T15:59:58.658Z,4.80
2018-06-11T16:02:27.137Z,4.47
2018-06-11T16:04:55.534Z,5.27
2018-06-11T16:07:23.958Z,4.73
2018-06-11T16:09:52.374Z,4.83
2018-06-11T16:12:20.788Z,5.20
2018-06-11T16:14:49.134Z,5.50
2018-06-11T16:17:17.510Z,5.33
2018-06-11T16:19:45.859Z,5.63
2018-06-11T16:22:14.259Z,6.20
2018-06-11T16:24:42.754Z,5.90
2018-06-11T16:27:11.260Z,6.20
2018-06-11T16:29:39.693Z,5.60
2018-06-11T16:32:08.160Z,5.37
2018-06-11T16:34:36.620Z,6.00
2018-06-11T16:37:05.108Z,6.07
2018-06-11T16:39:33.712Z,6.27
2018-06-11T16:42:02.054Z,6.50
2018-06-11T16:44:30.526Z,6.30
2018-06-11T16:46:58.961Z,5.77
2018-06-11T16:49:27.789Z,6.43
2018-06-11T16:51:56.221Z,6.50
2018-06-11T16:54:24.534Z,6.50
2018-06-11T16:56:52.951Z,6.03
2018-06-11T16:59:21.348Z,6.47
2018-06-11T17:01:49.872Z,6.10
2018-06-11T17:04:18.347Z,6.20
2018-06-11T17:06:46.735Z,5.70
2018-06-11T17:09:15.091Z,6.77
2018-06-11T17:11:43.480Z,5.70
2018-06-11T17:14:12.079Z,5.90
2018-06-11T17:16:40.456Z,6.10
2018-06-11T17:19:08.930Z,6.20
2018-06-11T17:21:37.307Z,6.40
2018-06-11T17:24:05.710Z,6.33
2018-06-11T17:26:34.200Z,5.73
2018-06-11T17:29:02.574Z,6.83
2018-06-11T17:31:31.048Z,6.20
2018-06-11T17:33:59.117Z,5.70
2018-06-11T17:36:27.515Z,6.23
2018-06-11T17:38:55.912Z,6.27
2018-06-11T17:41:24.328Z,6.53
2018-06-11T17:43:52.614Z,6.60
2018-06-11T17:46:21.040Z,5.93
2018-06-11T17:48:49.350Z,5.93
2018-06-11T17:51:18.066Z,5.93
2018-06-11T17:53:46.934Z,5.47
2018-06-11T17:56:15.352Z,7.10
2018-06-11T17:58:43.804Z,6.17
2018-06-11T18:01:12.206Z,5.87
2018-06-11T18:03:40.599Z,6.13
2018-06-11T18:06:09.003Z,6.47
2018-06-11T18:08:37.385Z,6.40
2018-06-11T18:11:05.793Z,6.03
2018-06-11T18:13:34.231Z,7.57
2018-06-11T18:16:02.620Z,5.73
2018-06-11T18:18:30.952Z,6.03
2018-06-11T18:20:59.293Z,6.20
2018-06-11T18:23:27.745Z,6.63
2018-06-11T18:25:56.260Z,6.60
2018-06-11T18:28:24.714Z,5.70
2018-06-11T18:30:53.208Z,5.20
2018-06-11T18:33:21.566Z,5.77
2018-06-11T18:35:50.040Z,6.00
2018-06-11T18:38:18.393Z,5.80
2018-06-11T18:40:46.791Z,6.10
2018-06-11T18:43:15.154Z,6.03
2018-06-11T18:45:43.561Z,6.30
2018-06-11T18:48:12.034Z,5.93
2018-06-11T18:50:40.408Z,6.53
2018-06-11T18:53:08.920Z,5.77
2018-06-11T18:55:37.362Z,6.80
2018-06-11T18:58:05.814Z,6.13
2018-06-11T19:00:34.237Z,5.70
2018-06-11T19:03:02.695Z,6.50
2018-06-11T19:05:31.115Z,7.50
2018-06-11T19:07:59.560Z,6.77
2018-06-11T19:10:27.973Z,7.23
2018-06-11T19:12:56.377Z,8.10
2018-06-11T19:15:24.773Z,6.83
2018-06-11T19:17:53.146Z,7.13
2018-06-11T19:20:21.236Z,6.50
2018-06-11T19:22:50.311Z,7.03
2018-06-11T19:25:18.708Z,7.20
2018-06-11T19:27:47.251Z,6.70
2018-06-11T19:30:15.756Z,7.03
2018-06-11T19:32:44.177Z,7.43
2018-06-11T19:35:12.693Z,7.80
2018-06-11T19:37:41.168Z,7.73
2018-06-11T19:40:09.552Z,7.80
2018-06-11T19:42:38.075Z,7.47
2018-06-11T19:45:06.387Z,7.17
2018-06-11T19:47:34.973Z,8.03
2018-06-11T19:50:03.716Z,7.90
2018-06-11T19:52:32.067Z,8.17
2018-06-11T19:55:00.641Z,7.67
2018-06-11T19:57:29.074Z,9.67
2018-06-11T19:59:57.554Z,8.50
2018-06-11T20:02:25.905Z,9.10
2018-06-11T20:04:54.373Z,9.10
2018-06-11T20:07:22.908Z,9.20
2018-06-11T20:09:51.240Z,8.80
2018-06-11T20:12:19.932Z,8.23
2018-06-11T20:14:48.308Z,8.47
2018-06-11T20:17:16.838Z,8.63
2018-06-11T20:19:45.176Z,8.70
2018-06-11T20:22:13.621Z,7.43
2018-06-11T20:24:42.024Z,8.40
2018-06-11T20:27:10.450Z,8.20
2018-06-11T20:29:38.981Z,7.93
2018-06-11T20:32:07.355Z,8.57
2018-06-11T20:34:35.728Z,8.00
2018-06-11T20:37:04.214Z,8.30
2018-06-11T20:39:32.569Z,8.30
2018-06-11T20:42:01.425Z,8.90
2018-06-11T20:44:29.948Z,8.27
2018-06-11T20:46:58.400Z,7.93
2018-06-11T20:49:26.993Z,7.67
2018-06-11T20:51:55.372Z,7.43
2018-06-11T20:54:23.807Z,8.30
2018-06-11T20:56:52.281Z,7.63
2018-06-11T20:59:20.782Z,8.30
2018-06-11T21:01:49.232Z,8.53
2018-06-11T21:04:17.608Z,7.53
2018-06-11T21:06:46.092Z,7.80
2018-06-11T21:09:14.455Z,8.30
2018-06-11T21:11:42.985Z,8.17
2018-06-11T21:14:11.555Z,8.30
2018-06-11T21:16:40.041Z,7.90
2018-06-11T21:19:08.549Z,8.53
2018-06-11T21:21:37.156Z,8.60
2018-06-11T21:24:05.700Z,8.27
2018-06-11T21:26:34.146Z,8.73
2018-06-11T21:29:02.527Z,7.73
2018-06-11T21:31:30.995Z,7.40
2018-06-11T21:33:59.449Z,7.57
2018-06-11T21:36:27.837Z,8.83
2018-06-11T21:38:56.294Z,7.77
2018-06-11T21:41:24.732Z,7.60
2018-06-11T21:43:53.957Z,7.73
2018-06-11T21:46:22.538Z,8.13
2018-06-11T21:48:50.983Z,8.27
2018-06-11T21:51:19.383Z,8.20
2018-06-11T21:53:47.928Z,8.80
2018-06-11T21:56:16.409Z,7.90
2018-06-11T21:58:44.994Z,7.63
2018-06-11T22:01:13.402Z,7.83
2018-06-11T22:03:41.845Z,7.53
2018-06-11T22:06:10.206Z,8.63
2018-06-11T22:08:38.680Z,8.40
2018-06-11T22:11:07.045Z,8.90
2018-06-11T22:13:35.499Z,7.20
2018-06-11T22:16:04.012Z,7.60
2018-06-11T22:18:32.451Z,7.67
2018-06-11T22:21:00.833Z,7.60
2018-06-11T22:23:29.252Z,7.60
2018-06-11T22:25:57.688Z,7.40
2018-06-11T22:28:26.004Z,7.37
2018-06-11T22:30:54.469Z,7.33
2018-06-11T22:33:22.900Z,7.20
2018-06-11T22:35:51.370Z,7.67
2018-06-11T22:38:19.794Z,8.50
2018-06-11T22:40:48.359Z,7.73
2018-06-11T22:43:23.508Z,7.33
2018-06-11T22:45:52.006Z,7.20
2018-06-11T22:48:20.402Z,7.20
2018-06-11T22:50:49.054Z,7.50
2018-06-11T22:53:17.642Z,6.90
2018-06-11T22:55:46.061Z,7.60
2018-06-11T22:58:14.460Z,6.83
2018-06-11T23:00:42.879Z,7.90
2018-06-11T23:03:11.320Z,7.17
2018-06-11T23:05:39.884Z,6.77
2018-06-11T23:08:08.279Z,7.47
2018-06-11T23:10:36.683Z,8.23
2018-06-11T23:13:05.311Z,6.70
2018-06-11T23:15:33.650Z,7.37
2018-06-11T23:18:02.020Z,7.73
2018-06-11T23:20:30.431Z,7.47
2018-06-11T23:22:58.748Z,6.97
2018-06-11T23:25:27.227Z,7.63
2018-06-11T23:27:55.649Z,7.53
2018-06-11T23:30:24.016Z,7.57
2018-06-11T23:32:52.499Z,7.53
2018-06-11T23:35:20.876Z,7.70
2018-06-11T23:37:49.312Z,7.80
2018-06-11T23:40:18.046Z,7.87
2018-06-11T23:42:46.527Z,7.53
2018-06-11T23:45:14.922Z,7.97
2018-06-11T23:47:43.267Z,7.80
2018-06-11T23:50:11.685Z,7.30
2018-06-11T23:52:40.166Z,7.60
2018-06-11T23:55:08.484Z,7.90
2018-06-11T23:57:36.900Z,6.50
